Time;durP1;ratioP1;P1;durP2;ratioP2;P2;SDS_P1;SDS_P2;PMS_P1;PMS_P2;Temp;Humidity;BMP_temperature;BMP_pressure;BME280_temperature;BME280_humidity;BME280_pressure;Samples;Min_cycle;Max_cycle;Signal;HPM_P1;HPM_P2
2021/09/08 00:00:32;;;;;;;3.42;1.45;;;;;;;;;;5111279;28;20035;-69
2021/09/08 00:05:09;;;;;;;3.28;1.30;;;;;;;;;;5070582;28;20513;-68
2021/09/08 00:07:35;;;;;;;4.47;1.27;;;;;;;;;;5071027;28;20424;-68
2021/09/08 00:12:52;;;;;;;2.42;1.35;;;;;;;;;;5112015;27;20388;-67
2021/09/08 00:15:18;;;;;;;3.13;1.50;;;;;;;;;;5111326;28;20553;-68
2021/09/08 00:19:02;;;;;;;4.25;1.15;;;;;;;;;;5070525;28;20927;-68
2021/09/08 00:21:28;;;;;;;3.78;1.38;;;;;;;;;;5070858;28;20477;-68
2021/09/08 00:25:49;;;;;;;6.13;1.83;;;;;;;;;;5070639;28;20396;-70
2021/09/08 00:29:33;;;;;;;4.07;1.30;;;;;;;;;;5111431;27;20419;-68
2021/09/08 00:31:59;;;;;;;3.05;1.38;;;;;;;;;;5110942;28;20111;-68
2021/09/08 00:40:13;;;;;;;5.82;1.95;;;;;;;;;;5111088;27;20474;-68
2021/09/08 00:42:39;;;;;;;2.85;1.55;;;;;;;;;;5111540;28;20106;-68
2021/09/08 00:45:06;;;;;;;2.50;1.45;;;;;;;;;;5111259;28;20053;-67
2021/09/08 00:47:32;;;;;;;2.35;1.30;;;;;;;;;;5110890;28;20034;-67
2021/09/08 00:49:59;;;;;;;3.08;1.63;;;;;;;;;;5127020;28;20369;-68
2021/09/08 00:52:25;;;;;;;4.45;1.70;;;;;;;;;;5111010;28;20016;-68
2021/09/08 00:55:49;;;;;;;2.78;1.50;;;;;;;;;;5111776;27;20401;-68
2021/09/08 00:58:16;;;;;;;2.60;1.60;;;;;;;;;;5111633;28;20024;-68
2021/09/08 01:00:42;;;;;;;3.15;1.42;;;;;;;;;;5109619;28;20484;-68
2021/09/08 01:03:27;;;;;;;2.28;1.20;;;;;;;;;;5070875;28;20387;-68
2021/09/08 01:08:13;;;;;;;3.10;1.27;;;;;;;;;;5110913;27;20385;-68
2021/09/08 01:10:40;;;;;;;3.13;1.50;;;;;;;;;;5110038;28;20028;-68
2021/09/08 01:13:07;;;;;;;2.50;1.60;;;;;;;;;;5109977;28;20472;-68
2021/09/08 01:15:33;;;;;;;3.90;1.35;;;;;;;;;;5110819;28;20081;-68
2021/09/08 01:17:59;;;;;;;2.38;1.63;;;;;;;;;;5109919;28;20492;-68
2021/09/08 01:20:25;;;;;;;5.50;1.73;;;;;;;;;;5111130;28;20023;-68
2021/09/08 01:22:53;;;;;;;2.33;1.10;;;;;;;;;;5110721;28;20064;-68
2021/09/08 01:25:20;;;;;;;2.65;1.50;;;;;;;;;;5111042;28;20477;-68
2021/09/08 01:30:33;;;;;;;2.60;1.58;;;;;;;;;;5111368;27;20756;-68
2021/09/08 01:34:26;;;;;;;3.45;1.42;;;;;;;;;;5112151;27;20397;-68
2021/09/08 01:39:05;;;;;;;4.78;2.15;;;;;;;;;;5111583;27;20408;-68
2021/09/08 01:41:31;;;;;;;6.93;3.67;;;;;;;;;;5111378;28;20043;-68
2021/09/08 01:43:57;;;;;;;4.45;2.03;;;;;;;;;;5127056;28;20414;-68
2021/09/08 01:49:11;;;;;;;3.55;2.13;;;;;;;;;;5111571;27;20765;-68
2021/09/08 01:51:59;;;;;;;2.55;1.60;;;;;;;;;;5112287;27;20385;-71
2021/09/08 01:55:48;;;;;;;3.03;1.70;;;;;;;;;;5070598;28;20396;-69
2021/09/08 01:59:22;;;;;;;3.13;1.52;;;;;;;;;;5111706;27;20404;-71
2021/09/08 02:04:56;;;;;;;3.67;1.77;;;;;;;;;;5091094;27;20408;-68
2021/09/08 02:08:57;;;;;;;2.53;1.63;;;;;;;;;;5111524;27;20400;-70
2021/09/08 02:14:45;;;;;;;4.90;2.00;;;;;;;;;;5173698;27;20182;-67
2021/09/08 02:17:11;;;;;;;3.75;1.70;;;;;;;;;;5152173;27;20494;-69
2021/09/08 02:19:37;;;;;;;3.33;1.55;;;;;;;;;;5152705;27;20023;-69
2021/09/08 02:22:03;;;;;;;4.10;1.77;;;;;;;;;;5152710;27;20045;-69
2021/09/08 02:24:29;;;;;;;4.63;1.92;;;;;;;;;;5152067;27;20023;-68
2021/09/08 02:26:56;;;;;;;3.20;1.65;;;;;;;;;;5152425;27;20543;-69
2021/09/08 02:29:22;;;;;;;4.03;2.13;;;;;;;;;;5152442;27;20011;-69
2021/09/08 02:31:48;;;;;;;2.95;1.70;;;;;;;;;;5151971;27;20019;-69
2021/09/08 02:34:14;;;;;;;2.90;1.55;;;;;;;;;;5133616;27;20035;-69
2021/09/08 02:36:40;;;;;;;2.15;1.52;;;;;;;;;;5152153;27;20019;-68
2021/09/08 02:40:46;;;;;;;3.17;1.63;;;;;;;;;;5112094;27;20736;-68
2021/09/08 02:43:12;;;;;;;4.05;1.60;;;;;;;;;;5111707;28;20020;-69
2021/09/08 02:45:39;;;;;;;3.38;1.67;;;;;;;;;;5110979;28;20363;-69
2021/09/08 02:48:05;;;;;;;3.33;1.98;;;;;;;;;;5111245;28;20020;-70
2021/09/08 02:50:31;;;;;;;2.97;1.58;;;;;;;;;;5111253;28;20027;-69
2021/09/08 02:54:17;;;;;;;2.75;1.55;;;;;;;;;;5131761;27;20672;-68
2021/09/08 02:56:43;;;;;;;6.40;2.05;;;;;;;;;;5093133;28;20103;-69
2021/09/08 02:59:09;;;;;;;3.10;1.75;;;;;;;;;;5092718;28;20024;-70
2021/09/08 03:04:34;;;;;;;3.90;1.85;;;;;;;;;;5071664;28;20458;-70
2021/09/08 03:09:12;;;;;;;2.78;1.48;;;;;;;;;;5071090;28;20399;-71
2021/09/08 03:12:52;;;;;;;5.38;1.73;;;;;;;;;;5111444;27;20393;-68
2021/09/08 03:15:33;;;;;;;4.93;2.45;;;;;;;;;;5111608;27;20385;-68
2021/09/08 03:20:31;;;;;;;5.15;2.53;;;;;;;;;;5111610;27;20520;-70
2021/09/08 03:22:57;;;;;;;7.03;2.55;;;;;;;;;;5111651;28;20020;-70
2021/09/08 03:25:24;;;;;;;4.85;2.08;;;;;;;;;;5111345;28;20020;-70
2021/09/08 03:27:50;;;;;;;3.83;2.35;;;;;;;;;;5110833;28;20031;-70
2021/09/08 03:30:16;;;;;;;6.78;2.20;;;;;;;;;;5109961;28;20026;-70
2021/09/08 03:32:42;;;;;;;5.80;2.30;;;;;;;;;;5111238;28;20051;-68
2021/09/08 03:35:09;;;;;;;2.50;1.65;;;;;;;;;;5110856;28;20110;-68
2021/09/08 03:37:35;;;;;;;3.95;1.90;;;;;;;;;;5111366;28;20020;-68
2021/09/08 03:43:25;;;;;;;4.25;2.17;;;;;;;;;;5070709;28;20391;-70
2021/09/08 03:47:48;;;;;;;4.70;2.38;;;;;;;;;;5111805;27;20761;-70
2021/09/08 03:52:01;;;;;;;2.97;1.98;;;;;;;;;;5111991;27;20404;-71
2021/09/08 03:54:27;;;;;;;6.85;2.30;;;;;;;;;;5111409;28;20020;-70
2021/09/08 03:56:53;;;;;;;3.88;2.40;;;;;;;;;;5110959;28;20023;-71
2021/09/08 03:59:21;;;;;;;4.97;2.13;;;;;;;;;;5111312;28;20099;-70
2021/09/08 04:02:17;;;;;;;3.95;1.90;;;;;;;;;;5111702;27;20389;-68
2021/09/08 04:06:29;;;;;;;5.85;2.03;;;;;;;;;;5111440;27;20324;-68
2021/09/08 04:08:55;;;;;;;5.40;2.30;;;;;;;;;;5110036;28;20484;-68
2021/09/08 04:15:55;;;;;;;7.30;2.40;;;;;;;;;;5111437;27;20795;-70
2021/09/08 04:19:24;;;;;;;7.90;2.33;;;;;;;;;;5112148;27;20392;-70
2021/09/08 04:21:51;;;;;;;4.57;2.25;;;;;;;;;;5111395;28;20434;-70
2021/09/08 04:26:01;;;;;;;5.82;2.85;;;;;;;;;;5112129;27;20393;-67
2021/09/08 04:28:28;;;;;;;6.88;2.70;;;;;;;;;;5112040;28;20032;-69
2021/09/08 04:30:54;;;;;;;5.72;2.28;;;;;;;;;;5110895;28;20023;-68
2021/09/08 04:35:33;;;;;;;4.13;2.50;;;;;;;;;;5111896;27;20392;-68
2021/09/08 04:39:12;;;;;;;5.55;2.22;;;;;;;;;;5070601;28;20473;-70
2021/09/08 04:41:38;;;;;;;3.00;1.83;;;;;;;;;;5070928;28;20040;-67
2021/09/08 04:44:04;;;;;;;3.97;2.40;;;;;;;;;;5071259;28;20354;-68
2021/09/08 04:46:31;;;;;;;3.10;1.90;;;;;;;;;;5070469;28;20031;-68
2021/09/08 04:51:25;;;;;;;5.70;2.50;;;;;;;;;;5031165;28;20521;-68
2021/09/08 04:53:51;;;;;;;7.80;3.75;;;;;;;;;;5031172;28;20108;-68
2021/09/08 04:56:17;;;;;;;10.20;3.05;;;;;;;;;;5030889;28;20033;-70
2021/09/08 04:58:43;;;;;;;5.43;3.15;;;;;;;;;;5030726;28;20030;-69
2021/09/08 05:01:10;;;;;;;3.83;2.55;;;;;;;;;;5030773;28;20084;-70
2021/09/08 05:03:36;;;;;;;5.55;2.97;;;;;;;;;;5030701;28;20021;-69
2021/09/08 05:07:25;;;;;;;6.78;3.22;;;;;;;;;;5111159;27;20465;-70
2021/09/08 05:09:51;;;;;;;4.57;2.50;;;;;;;;;;5111435;28;20418;-70
2021/09/08 05:12:18;;;;;;;5.18;3.08;;;;;;;;;;5111278;28;20024;-70
2021/09/08 05:15:55;;;;;;;6.45;2.20;;;;;;;;;;5111451;27;20867;-69
2021/09/08 05:18:21;;;;;;;4.38;2.60;;;;;;;;;;5111465;28;20529;-69
2021/09/08 05:20:47;;;;;;;9.80;3.97;;;;;;;;;;5110836;28;20023;-68
2021/09/08 05:26:32;;;;;;;10.38;3.92;;;;;;;;;;5111599;27;20404;-71
2021/09/08 05:28:58;;;;;;;11.45;4.82;;;;;;;;;;5110975;28;20027;-70
2021/09/08 05:34:33;;;;;;;6.88;2.90;;;;;;;;;;5111194;27;20504;-72
2021/09/08 05:36:59;;;;;;;8.25;3.63;;;;;;;;;;5111346;28;20480;-70
2021/09/08 05:41:22;;;;;;;5.38;2.67;;;;;;;;;;5111411;27;20516;-68
2021/09/08 05:45:35;;;;;;;6.32;3.25;;;;;;;;;;5071012;28;20403;-69
2021/09/08 05:48:42;;;;;;;58.60;35.40;;;;;;;;;;5110961;27;20385;-69
2021/09/08 05:51:38;;;;;;;30.58;15.57;;;;;;;;;;5111667;27;20392;-70
2021/09/08 05:55:47;;;;;;;12.38;6.90;;;;;;;;;;5111315;27;20453;-70
2021/09/08 05:58:14;;;;;;;11.68;6.00;;;;;;;;;;5110057;28;20101;-70
2021/09/08 06:02:11;;;;;;;17.67;7.47;;;;;;;;;;5111079;27;20764;-69
2021/09/08 06:04:37;;;;;;;18.92;7.85;;;;;;;;;;5111257;28;20438;-69
2021/09/08 06:07:04;;;;;;;12.13;5.53;;;;;;;;;;5111435;28;20425;-69
2021/09/08 06:09:30;;;;;;;11.07;5.85;;;;;;;;;;5110978;28;20047;-69
2021/09/08 06:12:18;;;;;;;11.00;4.03;;;;;;;;;;5111763;27;20377;-69
2021/09/08 06:15:07;;;;;;;7.78;3.65;;;;;;;;;;5071215;28;20395;-71
2021/09/08 06:20:23;;;;;;;10.98;3.88;;;;;;;;;;5111887;27;20795;-70
2021/09/08 06:24:34;;;;;;;8.57;4.25;;;;;;;;;;5111004;27;20318;-69
2021/09/08 06:30:18;;;;;;;12.55;4.05;;;;;;;;;;5111389;27;20388;-70
2021/09/08 06:36:09;;;;;;;6.95;2.80;;;;;;;;;;5071237;28;20405;-70
2021/09/08 06:39:46;;;;;;;4.22;2.50;;;;;;;;;;5111608;27;20512;-70
2021/09/08 06:42:12;;;;;;;5.75;2.30;;;;;;;;;;5111530;28;20028;-70
2021/09/08 06:44:55;;;;;;;5.53;2.80;;;;;;;;;;5152648;27;20378;-70
2021/09/08 06:47:22;;;;;;;4.85;2.50;;;;;;;;;;5151375;27;20482;-71
2021/09/08 06:51:23;;;;;;;3.53;2.05;;;;;;;;;;5111412;27;20915;-73
2021/09/08 06:53:49;;;;;;;5.80;2.72;;;;;;;;;;5111353;28;20468;-74
2021/09/08 06:57:48;;;;;;;3.78;2.28;;;;;;;;;;5152923;27;20507;-71
2021/09/08 07:00:15;;;;;;;4.18;2.15;;;;;;;;;;5152186;27;20019;-71
2021/09/08 07:02:41;;;;;;;6.18;2.60;;;;;;;;;;5152429;27;20542;-70
2021/09/08 07:07:12;;;;;;;3.22;2.20;;;;;;;;;;5110978;27;20457;-70
2021/09/08 07:11:33;;;;;;;3.65;2.40;;;;;;;;;;5071537;28;20903;-69
2021/09/08 07:13:59;;;;;;;3.58;1.80;;;;;;;;;;5069123;28;20481;-70
2021/09/08 07:16:26;;;;;;;6.00;2.30;;;;;;;;;;5070726;28;20032;-69
2021/09/08 07:18:52;;;;;;;8.20;4.85;;;;;;;;;;5070633;28;20021;-68
2021/09/08 07:21:18;;;;;;;6.07;3.97;;;;;;;;;;5070174;28;20477;-69
2021/09/08 07:23:44;;;;;;;7.88;3.05;;;;;;;;;;5070451;28;20025;-69
2021/09/08 07:26:10;;;;;;;5.65;2.40;;;;;;;;;;5070147;28;20025;-69
2021/09/08 07:28:36;;;;;;;7.45;3.38;;;;;;;;;;5070456;28;20044;-69
2021/09/08 07:31:03;;;;;;;5.32;2.42;;;;;;;;;;5070443;28;20044;-69
2021/09/08 07:34:43;;;;;;;4.32;2.20;;;;;;;;;;5070581;27;20931;-69
2021/09/08 07:42:26;;;;;;;5.10;1.90;;;;;;;;;;5110970;27;20389;-69
2021/09/08 07:44:52;;;;;;;4.75;1.88;;;;;;;;;;5111359;28;20026;-69
2021/09/08 07:47:18;;;;;;;2.83;1.50;;;;;;;;;;5126629;28;20447;-69
2021/09/08 07:49:44;;;;;;;4.30;2.30;;;;;;;;;;5111200;28;20028;-69
2021/09/08 07:52:10;;;;;;;8.55;2.22;;;;;;;;;;5111233;28;20016;-70
2021/09/08 07:54:37;;;;;;;5.20;2.30;;;;;;;;;;5110824;28;20081;-70
2021/09/08 07:57:03;;;;;;;2.95;1.75;;;;;;;;;;5126847;28;20411;-70
2021/09/08 07:59:29;;;;;;;3.63;2.17;;;;;;;;;;5111064;28;20392;-69
2021/09/08 08:01:55;;;;;;;7.50;3.35;;;;;;;;;;5110747;28;20031;-70
2021/09/08 08:04:22;;;;;;;3.97;2.05;;;;;;;;;;5110910;28;20034;-69
2021/09/08 08:06:48;;;;;;;3.63;1.70;;;;;;;;;;5126723;28;20023;-69
2021/09/08 08:09:14;;;;;;;5.25;2.40;;;;;;;;;;5110800;28;20020;-69
2021/09/08 08:11:40;;;;;;;3.03;2.30;;;;;;;;;;5110807;28;20073;-69
2021/09/08 08:14:06;;;;;;;5.15;2.10;;;;;;;;;;5110699;28;20019;-69
2021/09/08 08:20:21;;;;;;;3.00;1.90;;;;;;;;;;5112084;27;20488;-69
2021/09/08 08:24:32;;;;;;;4.15;1.88;;;;;;;;;;5111086;27;20412;-69
2021/09/08 08:27:00;;;;;;;3.70;2.17;;;;;;;;;;5111302;28;20060;-69
2021/09/08 08:29:27;;;;;;;5.13;2.00;;;;;;;;;;5110888;28;20012;-70
2021/09/08 08:31:53;;;;;;;2.55;1.60;;;;;;;;;;5127111;28;20020;-70
2021/09/08 08:34:19;;;;;;;3.38;2.05;;;;;;;;;;5126911;28;20024;-70
2021/09/08 08:36:45;;;;;;;5.13;2.25;;;;;;;;;;5126517;28;20085;-70
2021/09/08 08:39:53;;;;;;;6.93;2.42;;;;;;;;;;5112182;27;20803;-68
2021/09/08 08:42:21;;;;;;;6.15;2.60;;;;;;;;;;5111310;28;20525;-71
2021/09/08 08:47:00;;;;;;;5.35;2.70;;;;;;;;;;5112150;27;20934;-70
2021/09/08 08:49:27;;;;;;;6.07;2.65;;;;;;;;;;5127131;28;20395;-70
2021/09/08 08:51:53;;;;;;;6.07;2.50;;;;;;;;;;5110727;28;20035;-70
2021/09/08 08:54:19;;;;;;;6.38;2.83;;;;;;;;;;5111184;28;20039;-70
2021/09/08 08:56:46;;;;;;;6.25;2.40;;;;;;;;;;5111626;28;20510;-70
2021/09/08 08:59:12;;;;;;;4.05;2.25;;;;;;;;;;5110959;28;20020;-70
2021/09/08 09:01:39;;;;;;;3.92;2.25;;;;;;;;;;5111114;28;20028;-69
2021/09/08 09:04:07;;;;;;;4.13;2.22;;;;;;;;;;5126770;28;20507;-71
2021/09/08 09:06:34;;;;;;;3.45;2.00;;;;;;;;;;5110562;28;20505;-69
2021/09/08 09:10:10;;;;;;;5.30;2.47;;;;;;;;;;5071053;27;20379;-69
2021/09/08 09:12:41;;;;;;;3.97;2.35;;;;;;;;;;5070458;28;20028;-69
2021/09/08 09:15:08;;;;;;;7.13;3.03;;;;;;;;;;5069372;28;20052;-69
2021/09/08 09:18:15;;;;;;;5.95;2.53;;;;;;;;;;5051437;28;20995;-69
2021/09/08 09:20:43;;;;;;;3.85;1.98;;;;;;;;;;5049117;28;20029;-70
2021/09/08 09:23:13;;;;;;;3.33;1.90;;;;;;;;;;5050567;28;20087;-70
2021/09/08 09:26:32;;;;;;;5.40;2.53;;;;;;;;;;5066064;28;20443;-70
2021/09/08 09:29:10;;;;;;;5.45;2.50;;;;;;;;;;5049489;28;20067;-70
2021/09/08 09:31:53;;;;;;;4.22;2.10;;;;;;;;;;5050710;28;20382;-70
2021/09/08 09:34:20;;;;;;;3.67;1.98;;;;;;;;;;5050261;28;20032;-70
2021/09/08 09:36:46;;;;;;;4.05;1.88;;;;;;;;;;5049545;28;20413;-70
2021/09/08 09:39:13;;;;;;;5.30;2.10;;;;;;;;;;5049342;28;20490;-70
2021/09/08 09:43:41;;;;;;;3.58;1.88;;;;;;;;;;5111298;27;20450;-70
2021/09/08 09:46:08;;;;;;;6.90;2.33;;;;;;;;;;5111383;28;20073;-69
2021/09/08 09:48:34;;;;;;;6.47;2.60;;;;;;;;;;5126640;28;20085;-69
2021/09/08 09:51:04;;;;;;;7.00;2.42;;;;;;;;;;5111209;28;20028;-69
2021/09/08 09:53:31;;;;;;;5.93;1.92;;;;;;;;;;5112048;28;20083;-69
2021/09/08 09:55:58;;;;;;;8.07;2.40;;;;;;;;;;5110663;28;20020;-69
2021/09/08 09:58:24;;;;;;;4.78;2.20;;;;;;;;;;5111155;28;20024;-69
2021/09/08 10:00:52;;;;;;;3.13;1.75;;;;;;;;;;5110536;28;20491;-69
2021/09/08 10:03:19;;;;;;;3.20;1.55;;;;;;;;;;5110992;28;20039;-69
2021/09/08 10:05:45;;;;;;;5.28;2.15;;;;;;;;;;5126802;28;20077;-70
2021/09/08 10:08:12;;;;;;;3.00;2.00;;;;;;;;;;5110252;28;20474;-70
2021/09/08 10:10:40;;;;;;;5.28;2.13;;;;;;;;;;5110892;28;20016;-71
2021/09/08 10:13:11;;;;;;;6.70;2.22;;;;;;;;;;5110815;28;20023;-70
2021/09/08 10:15:37;;;;;;;3.95;2.00;;;;;;;;;;5110621;28;20024;-70
2021/09/08 10:18:14;;;;;;;4.18;2.00;;;;;;;;;;5110800;28;20024;-70
2021/09/08 10:22:10;;;;;;;3.47;1.92;;;;;;;;;;5111246;27;20389;-69
2021/09/08 10:24:36;;;;;;;5.00;1.85;;;;;;;;;;5111345;28;20028;-69
2021/09/08 10:29:04;;;;;;;4.22;2.03;;;;;;;;;;5111326;27;20412;-70
2021/09/08 10:31:31;;;;;;;4.20;1.77;;;;;;;;;;5111409;28;20107;-69
2021/09/08 10:33:58;;;;;;;4.43;1.90;;;;;;;;;;5109994;28;20024;-69
2021/09/08 10:37:08;;;;;;;4.93;2.10;;;;;;;;;;5070544;28;20396;-68
2021/09/08 10:39:36;;;;;;;6.13;2.10;;;;;;;;;;5070932;28;20016;-68
2021/09/08 10:42:02;;;;;;;3.90;1.73;;;;;;;;;;5070569;28;20477;-69
2021/09/08 10:44:45;;;;;;;4.65;2.63;;;;;;;;;;5070384;28;20028;-69
2021/09/08 10:47:12;;;;;;;4.65;1.88;;;;;;;;;;5070557;28;20090;-69
2021/09/08 10:49:39;;;;;;;3.63;1.70;;;;;;;;;;5070490;28;20429;-69
2021/09/08 10:52:34;;;;;;;2.45;1.48;;;;;;;;;;5068777;28;20029;-70
2021/09/08 10:55:00;;;;;;;4.03;1.85;;;;;;;;;;5070219;28;20423;-70
2021/09/08 10:57:44;;;;;;;3.13;1.83;;;;;;;;;;5070268;28;20400;-68
2021/09/08 11:00:12;;;;;;;4.07;1.98;;;;;;;;;;5070290;28;20404;-69
2021/09/08 11:02:44;;;;;;;1.98;1.45;;;;;;;;;;5070905;28;20420;-69
2021/09/08 11:05:10;;;;;;;;;;;;;;;;;;5070222;28;20052;-69
2021/09/08 11:08:23;;;;;;;6.00;2.60;;;;;;;;;;5111937;27;20897;-69
2021/09/08 11:10:50;;;;;;;3.13;1.80;;;;;;;;;;5111279;28;20073;-69
2021/09/08 11:13:28;;;;;;;5.13;2.15;;;;;;;;;;5110865;28;20020;-70
2021/09/08 11:19:04;;;;;;;5.53;2.25;;;;;;;;;;5110980;27;20396;-70
2021/09/08 11:21:32;;;;;;;3.83;1.92;;;;;;;;;;5110125;28;20036;-70
2021/09/08 11:24:04;;;;;;;3.38;2.05;;;;;;;;;;5111138;28;20020;-70
2021/09/08 11:26:31;;;;;;;4.43;1.80;;;;;;;;;;5109497;28;20028;-70
2021/09/08 11:28:59;;;;;;;4.25;2.15;;;;;;;;;;5111076;28;20027;-70
2021/09/08 11:31:25;;;;;;;3.63;1.88;;;;;;;;;;5111089;28;20024;-70
2021/09/08 11:33:52;;;;;;;4.50;1.88;;;;;;;;;;5109372;28;20499;-70
2021/09/08 11:36:19;;;;;;;3.33;2.00;;;;;;;;;;5111301;28;20038;-70
2021/09/08 11:38:52;;;;;;;4.32;1.73;;;;;;;;;;5109880;28;20058;-70
2021/09/08 11:41:18;;;;;;;3.40;1.58;;;;;;;;;;5110564;28;20027;-70
2021/09/08 11:43:46;;;;;;;3.70;2.08;;;;;;;;;;5109568;28;20020;-68
2021/09/08 11:46:13;;;;;;;3.55;1.63;;;;;;;;;;5109458;28;20373;-68
2021/09/08 11:48:39;;;;;;;3.53;2.20;;;;;;;;;;5110215;28;20031;-69
2021/09/08 11:51:06;;;;;;;3.85;1.88;;;;;;;;;;5111055;28;20020;-70
2021/09/08 11:53:33;;;;;;;4.18;2.00;;;;;;;;;;5110249;28;20495;-69
2021/09/08 11:56:09;;;;;;;3.50;1.80;;;;;;;;;;5110654;28;20495;-69
2021/09/08 11:58:35;;;;;;;3.70;1.83;;;;;;;;;;5110472;28;20491;-69
2021/09/08 12:01:08;;;;;;;2.25;1.55;;;;;;;;;;5110449;28;20086;-70
2021/09/08 12:03:45;;;;;;;2.50;1.50;;;;;;;;;;5110928;28;20052;-69
2021/09/08 12:06:22;;;;;;;4.10;1.98;;;;;;;;;;5110484;28;20464;-70
2021/09/08 12:09:02;;;;;;;4.60;2.03;;;;;;;;;;5110241;28;20388;-69
2021/09/08 12:11:45;;;;;;;4.35;1.90;;;;;;;;;;5110393;28;20376;-70
2021/09/08 12:14:14;;;;;;;3.22;1.80;;;;;;;;;;5110419;28;20020;-71
2021/09/08 12:16:40;;;;;;;4.35;1.75;;;;;;;;;;5108150;28;20023;-69
2021/09/08 12:19:14;;;;;;;4.90;1.73;;;;;;;;;;5110480;28;20023;-70
2021/09/08 12:21:40;;;;;;;3.28;1.50;;;;;;;;;;5109840;28;20376;-68
2021/09/08 12:24:45;;;;;;;2.45;1.55;;;;;;;;;;5173780;27;20310;-70
2021/09/08 12:27:32;;;;;;;3.78;1.83;;;;;;;;;;5152443;27;20460;-69
2021/09/08 12:30:08;;;;;;;2.83;1.65;;;;;;;;;;5152047;27;20424;-69
2021/09/08 12:32:44;;;;;;;5.00;1.80;;;;;;;;;;5152416;27;20102;-69
2021/09/08 12:35:10;;;;;;;4.32;2.00;;;;;;;;;;5152312;27;20383;-70
2021/09/08 12:37:37;;;;;;;2.53;1.70;;;;;;;;;;5151859;27;20027;-69
2021/09/08 12:40:13;;;;;;;3.35;1.85;;;;;;;;;;5152333;27;20025;-69
2021/09/08 12:42:44;;;;;;;4.22;1.90;;;;;;;;;;5133096;27;20027;-69
2021/09/08 12:45:10;;;;;;;5.80;1.85;;;;;;;;;;5152160;27;20049;-69
2021/09/08 12:47:39;;;;;;;3.63;1.60;;;;;;;;;;5152062;27;20019;-69
2021/09/08 12:50:05;;;;;;;4.90;1.63;;;;;;;;;;5132969;27;20050;-69
2021/09/08 12:52:31;;;;;;;4.15;2.08;;;;;;;;;;5151887;27;20097;-69
2021/09/08 12:54:58;;;;;;;4.47;1.92;;;;;;;;;;5151866;27;20027;-70
2021/09/08 12:57:32;;;;;;;2.58;1.20;;;;;;;;;;5151446;27;20118;-70
2021/09/08 12:59:58;;;;;;;2.88;1.83;;;;;;;;;;5151855;27;20018;-69
2021/09/08 13:02:25;;;;;;;2.15;1.35;;;;;;;;;;5151739;27;20023;-70
2021/09/08 13:04:51;;;;;;;3.55;1.65;;;;;;;;;;5151591;27;20535;-70
2021/09/08 13:07:17;;;;;;;2.53;1.33;;;;;;;;;;5151679;27;20023;-69
2021/09/08 13:09:43;;;;;;;4.68;1.90;;;;;;;;;;5151605;27;20487;-68
2021/09/08 13:12:09;;;;;;;2.47;1.60;;;;;;;;;;5151229;27;20027;-68
2021/09/08 13:14:36;;;;;;;3.05;1.50;;;;;;;;;;5151548;27;20057;-69
2021/09/08 13:17:02;;;;;;;2.00;1.20;;;;;;;;;;5151559;27;20034;-68
2021/09/08 13:19:28;;;;;;;4.05;1.85;;;;;;;;;;5151096;27;20102;-68
2021/09/08 13:21:54;;;;;;;5.63;2.30;;;;;;;;;;5151389;27;20084;-68
2021/09/08 13:24:21;;;;;;;5.10;1.83;;;;;;;;;;5151143;27;20043;-69
2021/09/08 13:26:49;;;;;;;5.85;2.20;;;;;;;;;;5150932;27;20509;-69
2021/09/08 13:29:16;;;;;;;5.57;2.63;;;;;;;;;;5132654;27;20038;-71
2021/09/08 13:31:42;;;;;;;6.90;2.70;;;;;;;;;;5132662;27;20057;-69
2021/09/08 13:34:11;;;;;;;3.63;2.00;;;;;;;;;;5129246;28;20024;-70
2021/09/08 13:36:38;;;;;;;2.78;1.50;;;;;;;;;;5137429;27;20023;-70
2021/09/08 13:39:05;;;;;;;3.42;1.95;;;;;;;;;;5137114;27;20027;-70
2021/09/08 13:41:32;;;;;;;3.88;1.85;;;;;;;;;;5137207;27;20554;-70
2021/09/08 13:43:58;;;;;;;5.93;2.83;;;;;;;;;;5137149;27;20076;-69
2021/09/08 13:46:25;;;;;;;13.32;3.42;;;;;;;;;;5136768;27;20098;-70
2021/09/08 13:48:51;;;;;;;7.75;4.25;;;;;;;;;;5136998;27;20140;-70
2021/09/08 13:51:17;;;;;;;10.00;2.60;;;;;;;;;;5118728;27;20027;-70
2021/09/08 13:53:45;;;;;;;8.95;2.92;;;;;;;;;;5118156;27;20027;-70
2021/09/08 13:56:11;;;;;;;6.82;3.22;;;;;;;;;;5137056;27;20090;-70
2021/09/08 13:58:37;;;;;;;4.63;2.20;;;;;;;;;;5136987;27;20057;-70
2021/09/08 14:01:03;;;;;;;4.45;2.47;;;;;;;;;;5136489;27;20012;-69
2021/09/08 14:03:30;;;;;;;5.22;2.47;;;;;;;;;;5137309;27;20054;-70
2021/09/08 14:05:58;;;;;;;4.85;2.15;;;;;;;;;;5137022;27;20356;-70
2021/09/08 14:08:24;;;;;;;4.82;2.05;;;;;;;;;;5136294;27;20050;-70
2021/09/08 14:10:50;;;;;;;7.47;2.28;;;;;;;;;;5136874;27;20034;-70
2021/09/08 14:13:16;;;;;;;5.60;2.22;;;;;;;;;;5136720;27;20448;-70
2021/09/08 14:15:43;;;;;;;3.63;2.47;;;;;;;;;;5136180;27;20030;-70
2021/09/08 14:18:09;;;;;;;9.75;2.88;;;;;;;;;;5136517;27;20439;-70
2021/09/08 14:20:35;;;;;;;5.47;2.42;;;;;;;;;;5136514;27;20027;-70
2021/09/08 14:23:02;;;;;;;5.97;2.67;;;;;;;;;;5135890;27;20043;-70
2021/09/08 14:25:29;;;;;;;5.63;2.60;;;;;;;;;;5118035;27;20035;-70
2021/09/08 14:27:55;;;;;;;3.60;1.95;;;;;;;;;;5136332;27;20508;-70
2021/09/08 14:31:17;;;;;;;6.53;3.30;;;;;;;;;;5070882;28;20388;-68
2021/09/08 14:33:43;;;;;;;8.00;3.38;;;;;;;;;;5070738;28;20039;-68
2021/09/08 14:37:09;;;;;;;5.47;2.45;;;;;;;;;;5111038;27;20416;-69
2021/09/08 14:39:35;;;;;;;4.55;2.28;;;;;;;;;;5110036;28;20387;-68
2021/09/08 14:42:02;;;;;;;4.70;2.55;;;;;;;;;;5111242;28;20507;-68
2021/09/08 14:44:28;;;;;;;4.63;2.08;;;;;;;;;;5110857;28;20047;-68
2021/09/08 14:46:54;;;;;;;3.80;2.25;;;;;;;;;;5111290;28;20480;-69
2021/09/08 14:49:21;;;;;;;4.40;2.20;;;;;;;;;;5109330;28;20076;-69
2021/09/08 14:51:47;;;;;;;2.97;1.73;;;;;;;;;;5111296;28;20464;-69
2021/09/08 14:54:14;;;;;;;3.25;1.70;;;;;;;;;;5111221;28;20023;-70
2021/09/08 14:56:42;;;;;;;3.80;2.08;;;;;;;;;;5110591;28;20483;-70
2021/09/08 14:59:09;;;;;;;4.22;2.33;;;;;;;;;;5110993;28;20028;-69
2021/09/08 15:01:35;;;;;;;6.10;2.83;;;;;;;;;;5109605;28;20107;-69
2021/09/08 15:04:01;;;;;;;3.20;2.03;;;;;;;;;;5110896;28;20365;-69
2021/09/08 15:06:27;;;;;;;6.15;2.40;;;;;;;;;;5110807;28;20024;-69
2021/09/08 15:10:58;;;;;;;3.72;1.83;;;;;;;;;;5111178;27;20512;-68
2021/09/08 15:13:25;;;;;;;6.05;2.53;;;;;;;;;;5111387;28;20039;-68
2021/09/08 15:15:51;;;;;;;6.72;2.25;;;;;;;;;;5111181;28;20024;-68
2021/09/08 15:19:14;;;;;;;2.92;2.05;;;;;;;;;;5111167;27;20453;-69
2021/09/08 15:21:40;;;;;;;6.43;2.28;;;;;;;;;;5111376;28;20078;-70
2021/09/08 15:24:06;;;;;;;7.13;2.45;;;;;;;;;;5109965;28;20020;-73
2021/09/08 15:26:55;;;;;;;6.03;2.63;;;;;;;;;;5111057;27;20389;-68
2021/09/08 15:29:21;;;;;;;4.63;2.60;;;;;;;;;;5111296;28;20111;-68
2021/09/08 15:31:47;;;;;;;5.60;2.38;;;;;;;;;;5110952;28;20058;-69
2021/09/08 15:35:13;;;;;;;7.40;2.65;;;;;;;;;;5111266;27;20306;-70
2021/09/08 15:37:39;;;;;;;4.78;2.30;;;;;;;;;;5111353;28;20028;-69
2021/09/08 15:40:06;;;;;;;5.57;2.13;;;;;;;;;;5110824;28;20028;-69
2021/09/08 15:42:32;;;;;;;7.53;2.58;;;;;;;;;;5111542;28;20475;-69
2021/09/08 15:44:58;;;;;;;6.25;2.20;;;;;;;;;;5111135;28;20495;-69
2021/09/08 15:47:25;;;;;;;4.10;2.38;;;;;;;;;;5110706;28;20051;-69
2021/09/08 15:49:51;;;;;;;4.65;2.40;;;;;;;;;;5111273;28;20028;-69
2021/09/08 15:52:17;;;;;;;12.45;3.42;;;;;;;;;;5110992;28;20027;-69
2021/09/08 15:54:43;;;;;;;5.07;2.50;;;;;;;;;;5092290;28;20395;-69
2021/09/08 15:57:09;;;;;;;5.70;2.00;;;;;;;;;;5092757;28;20020;-70
2021/09/08 15:59:35;;;;;;;4.88;2.40;;;;;;;;;;5110977;28;20140;-69
2021/09/08 16:02:03;;;;;;;4.60;2.17;;;;;;;;;;5092226;28;20408;-71
2021/09/08 16:04:29;;;;;;;6.13;2.58;;;;;;;;;;5110673;28;20020;-70
2021/09/08 16:06:56;;;;;;;6.15;2.20;;;;;;;;;;5091939;28;20069;-70
2021/09/08 16:09:22;;;;;;;4.28;2.00;;;;;;;;;;5092673;28;20529;-69
2021/09/08 16:11:48;;;;;;;3.55;2.00;;;;;;;;;;5110632;28;20085;-71
2021/09/08 16:14:18;;;;;;;3.90;2.08;;;;;;;;;;5110109;28;20035;-70
2021/09/08 16:16:45;;;;;;;4.55;2.03;;;;;;;;;;5110701;28;20020;-71
2021/09/08 16:19:12;;;;;;;4.30;2.25;;;;;;;;;;5110705;28;20433;-69
2021/09/08 16:21:38;;;;;;;3.95;1.95;;;;;;;;;;5092018;28;20020;-69
2021/09/08 16:24:04;;;;;;;6.05;2.67;;;;;;;;;;5110706;28;20028;-70
2021/09/08 16:26:31;;;;;;;4.22;2.25;;;;;;;;;;5110317;28;20023;-69
2021/09/08 16:30:42;;;;;;;3.30;1.80;;;;;;;;;;5112030;27;20508;-68
2021/09/08 16:33:09;;;;;;;8.32;1.85;;;;;;;;;;5110108;28;20122;-70
2021/09/08 16:35:35;;;;;;;3.42;1.88;;;;;;;;;;5110816;28;20092;-70
2021/09/08 16:38:01;;;;;;;4.40;2.13;;;;;;;;;;5109994;28;20027;-70
2021/09/08 16:40:27;;;;;;;2.60;1.58;;;;;;;;;;5111327;28;20031;-70
2021/09/08 16:42:54;;;;;;;2.72;1.88;;;;;;;;;;5110882;28;20362;-70
2021/09/08 16:45:20;;;;;;;6.38;2.47;;;;;;;;;;5111111;28;20020;-70
2021/09/08 16:47:46;;;;;;;9.20;3.13;;;;;;;;;;5111003;28;20117;-70
2021/09/08 16:50:12;;;;;;;11.55;4.45;;;;;;;;;;5110696;28;20031;-70
2021/09/08 16:52:40;;;;;;;7.78;4.45;;;;;;;;;;5110869;28;20024;-69
2021/09/08 16:55:06;;;;;;;11.40;5.50;;;;;;;;;;5111043;28;20023;-69
2021/09/08 16:57:50;;;;;;;15.45;7.03;;;;;;;;;;5070511;28;20387;-68
2021/09/08 17:00:17;;;;;;;13.23;7.30;;;;;;;;;;5070764;28;20029;-68
2021/09/08 17:02:43;;;;;;;9.02;4.32;;;;;;;;;;5070605;28;20044;-69
2021/09/08 17:05:09;;;;;;;10.73;4.05;;;;;;;;;;5070241;28;20028;-69
2021/09/08 17:07:36;;;;;;;6.90;2.97;;;;;;;;;;5070483;28;20436;-69
2021/09/08 17:10:02;;;;;;;6.05;3.45;;;;;;;;;;5070500;28;20485;-69